Terminal Aerodrome Forecast
Issued by NWS Buffalo, NY

Home | Current Version | Previous Version | Text Only | Print | Product List | Glossary On
Versions: 1 2 3 4 5 6 7 8 9 10 11 12 13 14 15 16 17 18 19 20 21 22 23 24
000
FTUS41 KBUF 242032 AAA
TAFROC
TAF AMD
KROC 242032Z 2421/2518 05014KT P6SM SKC
     FM242300 05009KT P6SM SKC
     FM250500 10006KT P6SM SCT200
     FM250800 13010KT P6SM VCSH BKN070
     FM251100 12013G20KT P6SM VCSH OVC045=

USA.gov is the U.S. government's official web portal to all federal, state and local government web resources and services.